Time;durP1;ratioP1;P1;durP2;ratioP2;P2;SDS_P1;SDS_P2;PMS_P1;PMS_P2;Temp;Humidity;BMP_temperature;BMP_pressure;BME280_temperature;BME280_humidity;BME280_pressure;Samples;Min_cycle;Max_cycle;Signal;HPM_P1;HPM_P2
2021/03/22 00:00:26;;;;;;;15.55;7.25;;;3.30;99.90;;;;;;5043218;28;20204;-76
2021/03/22 00:02:52;;;;;;;13.60;7.10;;;3.30;99.90;;;;;;5043583;28;20225;-76
2021/03/22 00:05:21;;;;;;;17.33;7.80;;;3.20;99.90;;;;;;5043427;28;20209;-76
2021/03/22 00:07:47;;;;;;;14.90;7.00;;;3.20;99.90;;;;;;5042061;28;20699;-77
2021/03/22 00:10:15;;;;;;;20.40;8.52;;;3.10;99.90;;;;;;5040589;28;20189;-76
2021/03/22 00:12:41;;;;;;;18.23;8.15;;;3.00;99.90;;;;;;5040162;28;20239;-76
2021/03/22 00:15:08;;;;;;;15.52;7.13;;;3.00;99.90;;;;;;5041501;28;20250;-77
2021/03/22 00:17:35;;;;;;;15.85;8.73;;;2.90;99.90;;;;;;5042557;28;20197;-76
2021/03/22 00:20:02;;;;;;;13.75;7.50;;;2.90;99.90;;;;;;5044713;28;20565;-76
2021/03/22 00:22:29;;;;;;;17.48;8.32;;;2.90;99.90;;;;;;5042855;28;20567;-76
2021/03/22 00:24:55;;;;;;;14.18;7.32;;;2.90;99.90;;;;;;5043435;28;20675;-76
2021/03/22 00:27:21;;;;;;;13.93;7.07;;;2.90;99.90;;;;;;5042299;28;20262;-76
2021/03/22 00:29:47;;;;;;;21.58;8.05;;;3.00;99.90;;;;;;5045261;28;20208;-76
2021/03/22 00:32:14;;;;;;;24.30;7.65;;;3.00;99.90;;;;;;5045746;28;20621;-76
2021/03/22 00:34:41;;;;;;;17.73;7.10;;;3.00;99.90;;;;;;5044823;28;20205;-76
2021/03/22 00:37:07;;;;;;;18.58;7.65;;;3.00;99.90;;;;;;5045807;28;20247;-76
2021/03/22 00:39:33;;;;;;;12.18;6.13;;;3.10;99.90;;;;;;5045102;28;20318;-76
2021/03/22 00:41:59;;;;;;;15.23;7.22;;;3.10;99.90;;;;;;5045723;28;20236;-77
2021/03/22 00:44:26;;;;;;;20.73;7.18;;;3.20;99.90;;;;;;5045562;28;20209;-76
2021/03/22 00:46:53;;;;;;;15.48;7.25;;;3.20;99.90;;;;;;5045399;28;20749;-76
2021/03/22 00:49:20;;;;;;;18.98;8.43;;;3.20;99.90;;;;;;5045693;28;20223;-75
2021/03/22 00:51:47;;;;;;;15.32;7.25;;;3.20;99.90;;;;;;5045428;28;20228;-76
2021/03/22 00:54:13;;;;;;;28.00;8.35;;;3.20;99.90;;;;;;5045798;28;20212;-76
2021/03/22 00:56:39;;;;;;;12.43;6.88;;;3.20;99.90;;;;;;5045045;28;20209;-76
2021/03/22 01:01:34;;;;;;;19.83;6.88;;;3.30;99.90;;;;;;5065843;28;20285;-73
2021/03/22 01:04:17;;;;;;;21.15;7.78;;;3.30;99.90;;;;;;5068862;28;20204;-73
2021/03/22 01:06:43;;;;;;;14.98;6.82;;;3.40;99.90;;;;;;5065859;28;20205;-73
2021/03/22 01:09:10;;;;;;;11.15;5.93;;;3.40;99.90;;;;;;5067988;28;20207;-73
2021/03/22 01:11:36;;;;;;;17.13;6.38;;;3.40;99.90;;;;;;5068247;28;20232;-75
2021/03/22 01:14:03;;;;;;;17.80;6.20;;;3.40;99.90;;;;;;5068554;28;20196;-73
2021/03/22 01:16:34;;;;;;;13.20;6.10;;;3.40;99.90;;;;;;5068559;28;20679;-73
2021/03/22 01:19:06;;;;;;;20.92;6.80;;;3.40;99.90;;;;;;5068505;28;20216;-72
2021/03/22 01:21:35;;;;;;;17.58;5.78;;;3.40;99.90;;;;;;5068487;28;20227;-72
2021/03/22 01:24:02;;;;;;;19.27;6.45;;;3.40;99.90;;;;;;5068410;28;20197;-72
2021/03/22 01:26:32;;;;;;;11.23;6.10;;;3.40;99.90;;;;;;5079991;28;20612;-72
2021/03/22 01:28:59;;;;;;;13.73;6.32;;;3.40;99.90;;;;;;5088307;28;20247;-72
2021/03/22 01:31:26;;;;;;;22.52;6.47;;;3.40;99.90;;;;;;5088416;28;20234;-73
2021/03/22 01:33:53;;;;;;;14.93;6.47;;;3.40;99.90;;;;;;5089212;28;20567;-72
2021/03/22 01:36:23;;;;;;;14.93;6.45;;;3.40;99.90;;;;;;5088498;28;20222;-72
2021/03/22 01:38:50;;;;;;;17.58;6.15;;;3.50;99.90;;;;;;5088512;28;20196;-73
2021/03/22 01:41:49;;;;;;;14.70;5.72;;;3.50;99.90;;;;;;5088415;28;20224;-74
2021/03/22 01:44:26;;;;;;;18.70;5.85;;;3.40;99.90;;;;;;5082057;28;20207;-74
2021/03/22 01:46:56;;;;;;;13.27;5.65;;;3.40;99.90;;;;;;5089929;28;20207;-74
2021/03/22 01:49:25;;;;;;;19.25;5.70;;;3.50;99.90;;;;;;5091727;28;20249;-74
2021/03/22 01:51:53;;;;;;;17.58;4.70;;;3.50;99.90;;;;;;5091904;28;20228;-74
2021/03/22 01:54:20;;;;;;;11.43;5.30;;;3.50;99.90;;;;;;5092125;28;20203;-74
2021/03/22 01:56:48;;;;;;;18.83;5.30;;;3.50;99.90;;;;;;5091041;28;20945;-74
2021/03/22 01:59:17;;;;;;;14.57;5.38;;;3.50;99.90;;;;;;5087945;28;20548;-74
2021/03/22 02:01:49;;;;;;;22.38;6.00;;;3.50;99.90;;;;;;5092048;28;20224;-74
2021/03/22 02:04:16;;;;;;;9.50;5.20;;;3.50;99.90;;;;;;5091704;28;20195;-74
2021/03/22 02:06:42;;;;;;;17.88;5.85;;;3.50;99.90;;;;;;5092083;28;20261;-74
2021/03/22 02:09:09;;;;;;;16.77;6.07;;;3.50;99.90;;;;;;5090906;28;20210;-74
2021/03/22 02:11:36;;;;;;;22.00;5.80;;;3.40;99.90;;;;;;5091605;28;20234;-74
2021/03/22 02:14:05;;;;;;;18.77;5.75;;;3.40;99.90;;;;;;5091742;28;20283;-73
2021/03/22 02:16:43;;;;;;;15.80;5.63;;;3.40;99.90;;;;;;5091641;28;20206;-74
2021/03/22 02:19:43;;;;;;;18.60;6.13;;;3.40;99.90;;;;;;5091402;28;20207;-74
2021/03/22 02:22:38;;;;;;;15.02;5.65;;;3.40;99.90;;;;;;5080775;28;20223;-73
2021/03/22 02:25:12;;;;;;;15.30;5.63;;;3.40;99.90;;;;;;5091761;28;20204;-74
2021/03/22 02:28:11;;;;;;;16.45;6.15;;;3.40;99.90;;;;;;5091229;28;20277;-74
2021/03/22 02:31:23;;;;;;;14.43;5.97;;;3.30;99.90;;;;;;5090723;28;20679;-74
2021/03/22 02:34:17;;;;;;;16.65;5.65;;;3.40;99.90;;;;;;5091205;28;20203;-74
2021/03/22 02:36:51;;;;;;;19.08;6.03;;;3.40;99.90;;;;;;5091304;28;20207;-74
2021/03/22 02:39:18;;;;;;;15.80;5.43;;;3.40;99.90;;;;;;5090738;28;20227;-73
2021/03/22 02:41:47;;;;;;;16.20;4.95;;;3.40;99.90;;;;;;5091074;28;20224;-74
2021/03/22 02:44:19;;;;;;;21.67;5.97;;;3.30;99.90;;;;;;5091231;28;20219;-74
2021/03/22 02:46:53;;;;;;;16.45;5.32;;;3.30;99.90;;;;;;5090873;28;20261;-74
2021/03/22 02:49:21;;;;;;;11.35;6.03;;;3.30;99.90;;;;;;5090173;28;20214;-74
2021/03/22 02:52:00;;;;;;;12.27;5.45;;;3.30;99.90;;;;;;5091085;28;20232;-74
2021/03/22 02:54:35;;;;;;;15.43;5.75;;;3.30;99.90;;;;;;5091167;28;20957;-74
2021/03/22 02:57:07;;;;;;;21.05;4.68;;;3.30;99.90;;;;;;5091016;28;20253;-73
2021/03/22 02:59:40;;;;;;;17.20;5.72;;;3.20;99.90;;;;;;5090411;28;20694;-73
2021/03/22 03:02:08;;;;;;;10.32;4.05;;;3.20;99.90;;;;;;5090725;28;20222;-74
2021/03/22 03:04:37;;;;;;;11.35;4.80;;;3.20;99.90;;;;;;5090698;28;20207;-74
2021/03/22 03:07:07;;;;;;;13.57;5.00;;;3.20;99.90;;;;;;5090427;28;20204;-74
2021/03/22 03:09:36;;;;;;;18.55;5.88;;;3.20;99.90;;;;;;5089867;28;20196;-74
2021/03/22 03:12:11;;;;;;;23.15;5.65;;;3.20;99.90;;;;;;5090658;28;20330;-73
2021/03/22 03:14:37;;;;;;;13.57;4.30;;;3.20;99.90;;;;;;5090480;28;20225;-74
2021/03/22 03:17:04;;;;;;;18.85;4.53;;;3.20;99.90;;;;;;5091016;28;20203;-74
2021/03/22 03:19:31;;;;;;;19.52;5.07;;;3.20;99.90;;;;;;5089848;28;20207;-74
2021/03/22 03:21:58;;;;;;;15.57;4.75;;;3.10;99.90;;;;;;5090657;28;20262;-74
2021/03/22 03:24:25;;;;;;;18.42;4.90;;;3.10;99.90;;;;;;5089986;28;20212;-74
2021/03/22 03:26:51;;;;;;;16.40;4.95;;;3.00;99.90;;;;;;5090553;28;20208;-73
2021/03/22 03:29:17;;;;;;;15.15;4.50;;;3.00;99.90;;;;;;5089791;28;20578;-73
2021/03/22 03:31:43;;;;;;;15.82;4.80;;;3.00;99.90;;;;;;5090245;28;20231;-74
2021/03/22 03:34:10;;;;;;;13.80;4.53;;;2.90;99.90;;;;;;5090560;28;20253;-74
2021/03/22 03:36:36;;;;;;;20.45;5.30;;;2.90;99.90;;;;;;5090108;28;20211;-74
2021/03/22 03:39:06;;;;;;;10.77;4.15;;;2.90;99.90;;;;;;5090006;28;20203;-74
2021/03/22 03:41:32;;;;;;;13.13;4.45;;;3.00;99.90;;;;;;5090044;28;20230;-74
2021/03/22 03:43:58;;;;;;;7.57;3.80;;;3.00;99.90;;;;;;5090396;28;20211;-74
2021/03/22 03:46:25;;;;;;;18.13;4.80;;;3.10;99.90;;;;;;5089868;28;20199;-74
2021/03/22 03:48:51;;;;;;;16.25;4.35;;;3.10;99.90;;;;;;5089460;28;20223;-74
2021/03/22 03:51:17;;;;;;;11.27;4.20;;;3.10;99.90;;;;;;5089983;28;20227;-73
2021/03/22 03:53:43;;;;;;;19.23;5.35;;;3.10;99.90;;;;;;5089648;28;20208;-73
2021/03/22 03:56:11;;;;;;;12.85;4.78;;;3.00;99.90;;;;;;5089981;28;20708;-73
2021/03/22 03:58:37;;;;;;;15.90;4.80;;;3.00;99.90;;;;;;5089273;28;20743;-73
2021/03/22 04:01:04;;;;;;;12.63;4.45;;;3.00;99.90;;;;;;5089819;28;20232;-73
2021/03/22 04:03:33;;;;;;;14.07;6.03;;;2.90;99.90;;;;;;5089736;28;20207;-73
2021/03/22 04:06:02;;;;;;;12.15;3.65;;;3.00;99.90;;;;;;5089690;28;20207;-74
2021/03/22 04:08:31;;;;;;;13.40;4.40;;;3.10;99.90;;;;;;5089228;28;20227;-73
2021/03/22 04:10:59;;;;;;;18.40;4.05;;;3.10;99.90;;;;;;5088450;28;20216;-74
2021/03/22 04:13:26;;;;;;;12.23;5.20;;;3.10;99.90;;;;;;5089306;28;20204;-74
2021/03/22 04:15:53;;;;;;;17.27;4.93;;;3.00;99.90;;;;;;5089675;28;20199;-74
2021/03/22 04:18:19;;;;;;;12.40;4.47;;;3.00;99.90;;;;;;5089956;28;20545;-73
2021/03/22 04:20:45;;;;;;;18.92;4.50;;;3.00;99.90;;;;;;5089153;28;20621;-74
2021/03/22 04:23:11;;;;;;;13.15;4.75;;;3.00;99.90;;;;;;5089014;28;20208;-74
2021/03/22 04:25:38;;;;;;;14.00;4.15;;;3.00;99.90;;;;;;5089636;28;20204;-74
2021/03/22 04:28:05;;;;;;;12.10;4.32;;;3.00;99.90;;;;;;5089212;28;20228;-73
2021/03/22 04:30:32;;;;;;;15.40;4.40;;;3.10;99.90;;;;;;5088967;28;20253;-74
2021/03/22 04:32:58;;;;;;;12.55;4.68;;;3.00;99.90;;;;;;5089448;28;20211;-74
2021/03/22 04:35:26;;;;;;;18.30;4.82;;;3.00;99.90;;;;;;5077327;28;20212;-74
2021/03/22 04:37:52;;;;;;;21.55;6.22;;;3.00;99.90;;;;;;5074213;28;20194;-74
2021/03/22 04:40:21;;;;;;;12.52;4.30;;;2.90;99.90;;;;;;5089581;28;20214;-74
2021/03/22 04:42:47;;;;;;;10.77;4.28;;;2.90;99.90;;;;;;5090431;28;20277;-74
2021/03/22 04:45:14;;;;;;;18.77;5.60;;;2.90;99.90;;;;;;5089851;28;20199;-73
2021/03/22 04:47:41;;;;;;;15.98;4.40;;;2.90;99.90;;;;;;5089832;28;20352;-73
2021/03/22 04:50:08;;;;;;;17.15;4.70;;;2.90;99.90;;;;;;5088636;28;20204;-73
2021/03/22 04:52:35;;;;;;;11.40;4.70;;;2.90;99.90;;;;;;5088577;28;20224;-73
2021/03/22 04:55:01;;;;;;;10.60;4.60;;;2.90;99.90;;;;;;5087865;28;20666;-74
2021/03/22 04:57:30;;;;;;;15.05;4.85;;;2.90;99.90;;;;;;5088205;28;20199;-74
2021/03/22 04:59:56;;;;;;;12.65;4.95;;;2.90;99.90;;;;;;5088344;28;20214;-73
2021/03/22 05:02:23;;;;;;;15.63;4.43;;;3.00;99.90;;;;;;5088777;28;20703;-74
2021/03/22 05:04:50;;;;;;;17.75;4.35;;;3.00;99.90;;;;;;5088720;28;20208;-73
2021/03/22 05:07:18;;;;;;;12.63;4.00;;;3.00;99.90;;;;;;5088955;28;20199;-74
2021/03/22 05:09:45;;;;;;;9.88;3.50;;;3.00;99.90;;;;;;5087908;28;20621;-73
2021/03/22 05:12:13;;;;;;;13.30;3.88;;;3.00;99.90;;;;;;5089170;28;20223;-73
2021/03/22 05:14:40;;;;;;;21.35;5.45;;;3.00;99.90;;;;;;5088672;28;20220;-74
2021/03/22 05:17:07;;;;;;;16.15;4.43;;;3.00;99.90;;;;;;5089126;28;20944;-73
2021/03/22 05:19:33;;;;;;;11.80;4.93;;;3.10;99.90;;;;;;5089555;28;20203;-72
2021/03/22 05:22:00;;;;;;;13.10;4.80;;;3.00;99.90;;;;;;5092050;28;20239;-72
2021/03/22 05:24:27;;;;;;;13.25;4.38;;;3.00;99.90;;;;;;5093810;28;20566;-73
2021/03/22 05:26:55;;;;;;;12.25;3.30;;;3.00;99.90;;;;;;5093427;28;20195;-71
2021/03/22 05:29:23;;;;;;;12.90;3.67;;;3.00;99.90;;;;;;5093806;28;20226;-71
2021/03/22 05:31:49;;;;;;;13.65;3.67;;;3.00;99.90;;;;;;5094496;28;20219;-72
2021/03/22 05:34:16;;;;;;;10.30;4.88;;;3.00;99.90;;;;;;5094755;28;20204;-71
2021/03/22 05:36:42;;;;;;;13.23;3.55;;;3.00;99.90;;;;;;5094623;28;20207;-74
2021/03/22 05:39:09;;;;;;;12.95;4.35;;;3.10;99.90;;;;;;5093964;28;20257;-74
2021/03/22 05:41:46;;;;;;;16.33;4.30;;;3.10;99.90;;;;;;5094249;28;20736;-73
2021/03/22 05:44:24;;;;;;;10.65;3.13;;;3.00;99.90;;;;;;5094174;28;20199;-74
2021/03/22 05:46:57;;;;;;;12.80;3.35;;;3.10;99.90;;;;;;5094819;28;20199;-73
2021/03/22 05:49:41;;;;;;;13.10;3.70;;;3.00;99.90;;;;;;5093539;28;20227;-73
2021/03/22 05:52:26;;;;;;;11.65;4.10;;;3.10;99.90;;;;;;5093445;28;20227;-73
2021/03/22 05:55:06;;;;;;;14.98;4.80;;;3.10;99.90;;;;;;5093892;28;20287;-73
2021/03/22 05:57:54;;;;;;;13.50;5.88;;;3.20;99.90;;;;;;5094254;28;20191;-73
2021/03/22 06:00:37;;;;;;;11.77;4.25;;;3.20;99.90;;;;;;5092675;28;20226;-73
2021/03/22 06:03:08;;;;;;;8.88;3.60;;;3.20;99.90;;;;;;5093817;28;20225;-73
2021/03/22 06:05:42;;;;;;;9.35;4.90;;;3.20;99.90;;;;;;5092983;28;20896;-74
2021/03/22 06:08:35;;;;;;;9.43;3.42;;;3.20;99.90;;;;;;5092835;28;20226;-73
2021/03/22 06:11:06;;;;;;;12.95;4.55;;;3.10;99.90;;;;;;5082694;28;20226;-73
2021/03/22 06:13:39;;;;;;;11.63;4.45;;;3.10;99.90;;;;;;5083291;28;20668;-74
2021/03/22 06:16:18;;;;;;;15.13;6.10;;;3.10;99.90;;;;;;5083165;28;20219;-71
2021/03/22 06:18:55;;;;;;;11.32;4.05;;;3.20;99.90;;;;;;5092803;28;20211;-72
2021/03/22 06:21:21;;;;;;;13.02;4.07;;;3.20;99.90;;;;;;5083834;28;20219;-72
2021/03/22 06:23:49;;;;;;;12.80;4.18;;;3.20;99.90;;;;;;5082981;28;20208;-72
2021/03/22 06:26:33;;;;;;;12.45;4.10;;;3.10;99.90;;;;;;5081654;28;20201;-72
2021/03/22 06:29:05;;;;;;;13.55;3.90;;;3.10;99.90;;;;;;5081112;28;20214;-72
2021/03/22 06:31:32;;;;;;;19.65;4.60;;;3.10;99.90;;;;;;5082395;28;20227;-72
2021/03/22 06:34:02;;;;;;;14.73;4.50;;;3.20;99.90;;;;;;5079809;28;20226;-72
2021/03/22 06:36:29;;;;;;;10.90;3.88;;;3.30;99.90;;;;;;5071016;28;20205;-71
2021/03/22 06:38:56;;;;;;;14.02;5.25;;;3.30;99.90;;;;;;5070530;28;20660;-72
2021/03/22 06:41:34;;;;;;;10.75;4.22;;;3.20;99.90;;;;;;5070421;28;20232;-71
2021/03/22 06:44:03;;;;;;;18.38;5.05;;;3.20;99.90;;;;;;5071191;28;20200;-75
2021/03/22 06:46:29;;;;;;;13.18;4.60;;;3.20;99.90;;;;;;5070506;28;20675;-74
2021/03/22 06:49:00;;;;;;;13.13;4.40;;;3.30;99.90;;;;;;5070314;28;20227;-73
2021/03/22 06:51:27;;;;;;;12.80;4.20;;;3.30;99.90;;;;;;5070630;28;20619;-74
2021/03/22 06:53:56;;;;;;;14.95;5.88;;;3.30;99.90;;;;;;5070671;28;20223;-74
2021/03/22 06:56:25;;;;;;;11.80;4.65;;;3.30;99.90;;;;;;5070818;28;20201;-73
2021/03/22 06:59:09;;;;;;;14.52;5.40;;;3.30;99.90;;;;;;5070212;28;20206;-74
2021/03/22 07:01:36;;;;;;;15.98;5.38;;;3.50;99.90;;;;;;5190309;22;20228;-90
2021/03/22 07:04:18;;;;;;;17.42;4.28;;;3.40;99.90;;;;;;5071306;28;20166;-89
2021/03/22 07:06:45;;;;;;;14.48;4.35;;;3.40;99.90;;;;;;5078702;28;20189;-91
2021/03/22 07:09:29;;;;;;;21.15;5.35;;;3.40;99.90;;;;;;5079028;28;20276;-92
2021/03/22 07:11:55;;;;;;;11.75;4.32;;;3.50;99.90;;;;;;5076301;28;20225;-91
2021/03/22 07:14:24;;;;;;;19.13;5.25;;;3.50;99.90;;;;;;5077992;28;20249;-91
2021/03/22 07:17:21;;;;;;;20.20;4.50;;;3.50;99.90;;;;;;5073855;28;20253;-90
2021/03/22 07:20:06;;;;;;;10.75;3.60;;;3.40;99.90;;;;;;5063845;28;20265;-90
2021/03/22 07:22:41;;;;;;;9.40;3.78;;;3.40;99.90;;;;;;5057218;28;20208;-91
2021/03/22 07:25:32;;;;;;;16.00;5.32;;;3.50;99.90;;;;;;5062698;28;20205;-91
2021/03/22 07:28:22;;;;;;;10.50;3.53;;;3.50;99.90;;;;;;5073541;28;20284;-92
2021/03/22 07:30:55;;;;;;;8.55;4.05;;;3.50;99.90;;;;;;5072941;28;20225;-92
2021/03/22 07:33:41;;;;;;;11.07;3.45;;;3.60;99.90;;;;;;5069330;28;20197;-90
2021/03/22 07:36:25;;;;;;;11.52;3.92;;;3.60;99.90;;;;;;5071513;28;20189;-93
2021/03/22 07:39:30;;;;;;;19.77;4.97;;;3.60;99.90;;;;;;5062157;28;20193;-92
2021/03/22 07:42:32;;;;;;;13.85;3.85;;;3.60;99.90;;;;;;5038023;28;20252;-91
2021/03/22 07:45:31;;;;;;;12.38;3.72;;;3.70;99.90;;;;;;5044894;28;20185;-91
2021/03/22 07:58:50;;;;;;;13.55;3.95;;;4.00;99.90;;;;;;4976042;28;20191;-93
2021/03/22 08:01:24;;;;;;;9.05;4.15;;;4.10;99.90;;;;;;5025469;28;20229;-74
2021/03/22 08:04:04;;;;;;;15.80;3.60;;;4.20;99.90;;;;;;5026568;28;20204;-73
2021/03/22 08:06:50;;;;;;;9.30;3.25;;;4.20;99.90;;;;;;5025174;28;20213;-73
2021/03/22 08:09:37;;;;;;;9.82;3.35;;;4.20;99.90;;;;;;5026384;28;20221;-74
2021/03/22 08:12:10;;;;;;;7.72;3.22;;;4.20;99.90;;;;;;5027203;28;20225;-74
2021/03/22 08:14:38;;;;;;;9.75;3.70;;;4.20;99.90;;;;;;5026495;28;20201;-74
2021/03/22 08:17:17;;;;;;;7.25;2.33;;;4.10;99.90;;;;;;5027142;28;20213;-74
2021/03/22 08:19:48;;;;;;;9.57;3.63;;;4.10;99.90;;;;;;5026438;28;20213;-73
2021/03/22 08:22:22;;;;;;;10.93;4.00;;;4.20;99.90;;;;;;5026744;28;20221;-73
2021/03/22 08:24:58;;;;;;;6.30;2.80;;;4.20;99.90;;;;;;5027356;28;20197;-73
2021/03/22 08:27:29;;;;;;;10.60;3.30;;;4.20;99.90;;;;;;5014780;28;20662;-75
2021/03/22 08:30:04;;;;;;;7.22;2.90;;;4.30;99.90;;;;;;5002676;28;20206;-74
2021/03/22 08:32:41;;;;;;;9.18;3.13;;;4.40;99.90;;;;;;5007835;28;20229;-73
2021/03/22 08:35:18;;;;;;;9.32;2.90;;;4.40;99.90;;;;;;5008136;28;20228;-74
2021/03/22 08:37:47;;;;;;;12.70;4.50;;;4.40;99.90;;;;;;5007992;28;20572;-74
2021/03/22 08:40:17;;;;;;;7.47;3.95;;;4.50;99.90;;;;;;5004312;28;20658;-73
2021/03/22 08:42:47;;;;;;;9.88;3.63;;;4.60;99.90;;;;;;5005401;28;20714;-73
2021/03/22 08:45:21;;;;;;;12.77;4.35;;;4.60;99.90;;;;;;5006154;28;20203;-73
2021/03/22 08:47:51;;;;;;;5.30;3.20;;;4.70;99.90;;;;;;5000737;28;20222;-73
2021/03/22 08:50:21;;;;;;;6.85;2.70;;;4.70;99.90;;;;;;5003308;28;21183;-74
2021/03/22 08:52:54;;;;;;;9.85;2.83;;;4.70;99.90;;;;;;5005513;28;20510;-74
2021/03/22 08:55:22;;;;;;;12.60;3.20;;;4.60;99.90;;;;;;5003021;28;20210;-74
2021/03/22 08:57:57;;;;;;;11.85;3.45;;;4.70;99.90;;;;;;5008747;28;20213;-72
2021/03/22 09:00:31;;;;;;;9.27;3.30;;;4.90;99.90;;;;;;5002572;28;20248;-73
2021/03/22 09:03:00;;;;;;;15.18;4.05;;;5.00;99.90;;;;;;5009881;28;20206;-74
2021/03/22 09:05:31;;;;;;;6.93;2.85;;;5.20;99.90;;;;;;5009826;28;20198;-74
2021/03/22 09:08:19;;;;;;;8.88;3.42;;;5.40;99.90;;;;;;5003617;28;20226;-73
2021/03/22 09:10:45;;;;;;;7.18;3.30;;;5.50;99.90;;;;;;5005823;28;20219;-73
2021/03/22 09:13:29;;;;;;;9.50;3.05;;;5.50;99.90;;;;;;5009591;28;20198;-73
2021/03/22 09:16:06;;;;;;;7.78;3.03;;;5.50;99.90;;;;;;5007842;28;20198;-73
2021/03/22 09:18:33;;;;;;;9.95;3.90;;;5.40;99.90;;;;;;5007350;28;20202;-72
2021/03/22 09:21:19;;;;;;;8.32;3.63;;;5.30;99.90;;;;;;5006785;28;21032;-74
2021/03/22 09:23:46;;;;;;;6.50;3.15;;;5.30;99.90;;;;;;5007632;28;20379;-74
2021/03/22 09:26:13;;;;;;;9.00;3.10;;;5.30;99.90;;;;;;5009127;28;20207;-73
2021/03/22 09:28:53;;;;;;;6.05;3.10;;;5.30;99.90;;;;;;5008540;28;20316;-72
2021/03/22 09:31:43;;;;;;;6.43;2.50;;;5.20;99.90;;;;;;5007492;28;20218;-73
2021/03/22 09:34:34;;;;;;;9.38;2.78;;;5.20;99.90;;;;;;5007715;28;20206;-73
2021/03/22 09:37:41;;;;;;;3.53;2.63;;;5.20;99.90;;;;;;5003020;28;20402;-73
2021/03/22 09:40:12;;;;;;;5.20;2.90;;;5.30;99.90;;;;;;5002658;28;20673;-72
2021/03/22 09:42:38;;;;;;;6.18;2.80;;;5.30;99.90;;;;;;5008100;28;20226;-72
2021/03/22 09:45:22;;;;;;;9.82;2.53;;;5.20;99.90;;;;;;5003331;28;20226;-73
2021/03/22 09:48:05;;;;;;;9.52;2.20;;;5.20;99.90;;;;;;5006699;28;20222;-73
2021/03/22 09:50:34;;;;;;;9.15;2.67;;;5.20;99.90;;;;;;5004517;28;20249;-73
2021/03/22 09:53:14;;;;;;;9.13;2.75;;;5.10;99.90;;;;;;5003188;28;20220;-73
2021/03/22 09:55:54;;;;;;;5.57;2.60;;;5.10;99.90;;;;;;5008474;28;20261;-73
2021/03/22 09:58:30;;;;;;;11.93;2.60;;;5.10;99.90;;;;;;5005303;28;20206;-72
2021/03/22 10:00:59;;;;;;;5.45;2.88;;;5.30;99.90;;;;;;5003350;28;20226;-74
2021/03/22 10:03:45;;;;;;;8.25;4.03;;;5.50;99.90;;;;;;5006458;28;20202;-72
2021/03/22 10:06:42;;;;;;;8.60;3.20;;;5.80;99.90;;;;;;5007532;28;20201;-73
2021/03/22 10:09:16;;;;;;;7.18;2.90;;;6.00;99.90;;;;;;5005616;28;20222;-73
2021/03/22 10:11:45;;;;;;;10.50;3.10;;;6.20;99.90;;;;;;5005056;28;20230;-73
2021/03/22 10:14:24;;;;;;;11.88;2.80;;;6.30;99.90;;;;;;5007942;28;20206;-73
2021/03/22 10:16:51;;;;;;;8.15;2.88;;;6.40;99.90;;;;;;5006327;28;20218;-72
2021/03/22 10:19:19;;;;;;;6.72;3.03;;;6.60;99.90;;;;;;5004047;28;20198;-72
2021/03/22 10:21:48;;;;;;;7.82;3.78;;;6.70;99.90;;;;;;5008774;28;20230;-72
2021/03/22 10:24:27;;;;;;;5.75;2.55;;;6.90;99.80;;;;;;5006837;28;20209;-72
2021/03/22 10:26:56;;;;;;;5.05;2.30;;;6.90;98.80;;;;;;5007713;28;20198;-75
2021/03/22 10:29:27;;;;;;;4.53;2.15;;;6.90;98.80;;;;;;5003300;28;20218;-72
2021/03/22 10:32:02;;;;;;;7.75;3.08;;;6.80;98.70;;;;;;5007622;28;20241;-73
2021/03/22 10:34:32;;;;;;;5.80;2.60;;;6.50;98.60;;;;;;5005828;28;20206;-72
2021/03/22 10:37:05;;;;;;;7.68;2.53;;;6.20;98.30;;;;;;4998233;28;20678;-73
2021/03/22 10:39:34;;;;;;;7.63;2.80;;;6.10;99.00;;;;;;5005217;28;20209;-72
2021/03/22 10:42:02;;;;;;;3.50;2.00;;;5.90;99.40;;;;;;5004528;28;20543;-73
2021/03/22 10:44:30;;;;;;;6.38;2.75;;;5.80;99.10;;;;;;5005635;28;20215;-73
2021/03/22 10:47:02;;;;;;;6.53;3.30;;;5.70;99.30;;;;;;5007337;28;20289;-73
2021/03/22 10:49:29;;;;;;;8.15;3.20;;;5.80;99.80;;;;;;5003119;28;20233;-73
2021/03/22 10:51:57;;;;;;;8.65;3.28;;;5.70;99.80;;;;;;5004248;28;20245;-72
2021/03/22 10:54:38;;;;;;;7.93;3.45;;;5.60;99.90;;;;;;5007139;28;20666;-75
2021/03/22 10:57:06;;;;;;;4.20;2.60;;;5.50;99.90;;;;;;5001069;28;20612;-74
2021/03/22 10:59:36;;;;;;;7.20;3.28;;;5.40;99.90;;;;;;4996688;28;20211;-73
2021/03/22 11:02:23;;;;;;;7.30;3.42;;;5.30;99.90;;;;;;5005310;28;20226;-74
2021/03/22 11:04:50;;;;;;;5.40;3.60;;;5.30;99.90;;;;;;4997197;28;20209;-74
2021/03/22 11:07:19;;;;;;;7.18;2.75;;;5.20;99.90;;;;;;5002388;28;20482;-74
2021/03/22 11:09:54;;;;;;;5.20;3.08;;;5.10;99.90;;;;;;4994827;28;20226;-73
2021/03/22 11:12:22;;;;;;;5.53;2.42;;;5.00;99.90;;;;;;5002473;28;20226;-74
2021/03/22 11:14:52;;;;;;;6.38;2.72;;;5.10;99.90;;;;;;4999878;28;20210;-73
2021/03/22 11:17:20;;;;;;;10.35;3.33;;;5.20;99.90;;;;;;5002589;28;20217;-74
2021/03/22 11:19:48;;;;;;;7.18;2.22;;;5.20;99.90;;;;;;5001630;28;20195;-73
2021/03/22 11:22:31;;;;;;;5.93;2.65;;;5.30;99.90;;;;;;5000551;28;20305;-74
2021/03/22 11:24:58;;;;;;;6.47;3.40;;;5.40;99.90;;;;;;4997835;28;20198;-74
2021/03/22 11:27:46;;;;;;;7.65;3.30;;;5.50;99.90;;;;;;4995292;28;20211;-73
2021/03/22 11:30:14;;;;;;;6.53;2.83;;;5.60;99.90;;;;;;4998053;28;20666;-73
2021/03/22 11:32:47;;;;;;;7.05;3.50;;;5.80;99.90;;;;;;5000088;28;20226;-74
2021/03/22 11:35:23;;;;;;;5.10;2.50;;;5.80;99.90;;;;;;5000480;28;20206;-73
2021/03/22 11:37:52;;;;;;;5.88;2.70;;;5.80;99.90;;;;;;4999359;28;20214;-73
2021/03/22 11:40:22;;;;;;;5.80;2.75;;;5.70;99.90;;;;;;4999193;28;20236;-74
2021/03/22 11:42:58;;;;;;;9.05;3.95;;;5.70;99.90;;;;;;4999208;28;20214;-74
2021/03/22 11:45:39;;;;;;;8.23;2.97;;;5.80;99.90;;;;;;4996494;28;20195;-73
2021/03/22 11:48:29;;;;;;;5.97;2.80;;;5.80;99.90;;;;;;5001350;28;20218;-74
2021/03/22 11:51:08;;;;;;;8.15;3.10;;;5.70;99.90;;;;;;5001067;28;20214;-74
2021/03/22 11:53:59;;;;;;;6.38;3.00;;;5.70;99.90;;;;;;4998166;28;20295;-74
2021/03/22 11:56:28;;;;;;;8.10;3.80;;;5.60;99.90;;;;;;4993733;28;20206;-74
2021/03/22 11:59:18;;;;;;;7.50;2.85;;;5.50;99.90;;;;;;4998195;28;20587;-74
2021/03/22 12:02:04;;;;;;;6.28;2.97;;;5.50;99.90;;;;;;4996246;28;20214;-73
2021/03/22 12:04:32;;;;;;;7.43;3.25;;;5.60;99.90;;;;;;4988427;28;20302;-74
2021/03/22 12:07:02;;;;;;;5.47;3.10;;;5.50;99.90;;;;;;4993522;28;20207;-74
2021/03/22 12:09:30;;;;;;;7.47;3.30;;;5.50;99.90;;;;;;4992625;28;20224;-75
2021/03/22 12:11:58;;;;;;;6.07;3.10;;;5.40;99.90;;;;;;4989677;28;20231;-73
2021/03/22 12:14:25;;;;;;;6.65;2.92;;;5.50;99.90;;;;;;4992098;28;20202;-74
2021/03/22 12:16:59;;;;;;;4.57;2.47;;;5.70;99.90;;;;;;4992540;28;20753;-74
2021/03/22 12:19:30;;;;;;;8.52;3.45;;;5.90;99.90;;;;;;4992126;28;20194;-75
2021/03/22 12:21:57;;;;;;;6.13;3.30;;;6.10;99.90;;;;;;4993383;28;20218;-73
2021/03/22 12:24:23;;;;;;;6.85;3.28;;;6.40;99.90;;;;;;4994444;28;20673;-74
2021/03/22 12:26:49;;;;;;;7.32;3.35;;;6.60;99.90;;;;;;4993972;28;20218;-74
2021/03/22 12:29:16;;;;;;;7.05;3.17;;;6.60;99.80;;;;;;4990224;28;20326;-74
2021/03/22 12:31:47;;;;;;;7.07;2.42;;;6.70;99.30;;;;;;4993513;28;20223;-73
2021/03/22 12:34:16;;;;;;;10.68;3.03;;;6.60;99.10;;;;;;4995515;28;20207;-74
2021/03/22 12:36:43;;;;;;;5.72;2.80;;;6.70;98.60;;;;;;5003366;28;20202;-74
2021/03/22 12:39:19;;;;;;;8.02;2.92;;;6.60;98.70;;;;;;5005370;28;20501;-74
2021/03/22 12:41:46;;;;;;;6.35;3.13;;;6.50;99.30;;;;;;5004139;28;20226;-73
2021/03/22 12:44:13;;;;;;;8.60;2.70;;;6.40;99.10;;;;;;5002136;28;20619;-74
2021/03/22 12:46:39;;;;;;;7.07;3.05;;;6.50;99.10;;;;;;5005855;28;20206;-74
2021/03/22 12:49:07;;;;;;;3.78;2.50;;;6.40;98.80;;;;;;5002704;28;20269;-73
2021/03/22 12:51:33;;;;;;;5.03;2.47;;;6.40;98.90;;;;;;5002637;28;20230;-73
2021/03/22 12:53:59;;;;;;;3.50;2.50;;;6.40;98.90;;;;;;5001827;28;20206;-73
2021/03/22 12:56:30;;;;;;;3.28;2.60;;;6.40;99.00;;;;;;5001611;28;20211;-73
2021/03/22 12:58:57;;;;;;;6.45;2.95;;;6.40;98.80;;;;;;5005660;28;20458;-73
2021/03/22 13:01:24;;;;;;;7.65;2.88;;;6.30;99.10;;;;;;5004031;28;20769;-73
2021/03/22 13:03:50;;;;;;;7.63;2.97;;;6.20;98.50;;;;;;5005702;28;20297;-74
2021/03/22 13:06:19;;;;;;;2.05;1.85;;;6.20;98.50;;;;;;5004567;28;20205;-74
2021/03/22 13:08:45;;;;;;;4.15;2.15;;;6.30;98.40;;;;;;4995207;28;20228;-73
2021/03/22 13:11:14;;;;;;;3.95;2.75;;;6.20;98.50;;;;;;5001661;28;20218;-73
2021/03/22 13:13:41;;;;;;;4.45;2.75;;;6.10;97.90;;;;;;5004813;28;20257;-73
2021/03/22 13:16:07;;;;;;;7.03;2.90;;;6.00;97.80;;;;;;5005345;28;20206;-73
2021/03/22 13:18:36;;;;;;;5.05;2.63;;;6.00;98.00;;;;;;5002812;28;20194;-73
2021/03/22 13:21:06;;;;;;;3.50;2.60;;;5.90;98.50;;;;;;5000521;28;20222;-74
2021/03/22 13:23:33;;;;;;;4.18;2.80;;;5.90;98.90;;;;;;5008937;28;20206;-72
2021/03/22 13:25:59;;;;;;;6.68;2.92;;;5.90;99.10;;;;;;5008912;28;20233;-73
2021/03/22 13:28:28;;;;;;;4.93;2.55;;;6.00;99.40;;;;;;5008070;28;20225;-72